Terminal Aerodrome Forecast
Issued by NWS Cleveland, OH

Home | Current Version | Previous Version | Text Only | Print | Product List | Glossary On
Versions: 1 2 3 4 5 6 7 8 9 10 11 12 13 14 15 16 17 18 19 20 21 22 23 24 25 26 27 28 29 30 31 32 33 34
000
FTUS41 KCLE 200700 AAA
TAFCLE
TAF AMD
KCLE 200747Z 2008/2112 17008KT P6SM VCSH SCT050 OVC100
      TEMPO 2008/2010 3SM -TSRA BR BKN035CB OVC050
     FM201000 19008KT 5SM BR SCT025 BKN150
     FM201500 24010KT P6SM VCTS BKN035CB OVC150
     FM202100 24006KT P6SM BKN040=

USA.gov is the U.S. government's official web portal to all federal, state and local government web resources and services.